Terminal Aerodrome Forecast
Issued by NWS Knoxville/Tri Cities, TN

Home | Current Version | Previous Version | Text Only | Print | Product List | Glossary On
Versions: 1 2 3 4 5 6 7 8 9 10 11 12 13 14 15 16 17 18 19 20 21 22 23 24 25 26 27 28
674
FTUS44 KMRX 211120
TAFTYS
TAF
KTYS 211120Z 2112/2212 VRB03KT P6SM BKN250
     FM211900 18007KT P6SM VCSH BKN070
     FM220200 03004KT 6SM -SHRA OVC040
     FM220600 03003KT 5SM -SHRA OVC030=

USA.gov is the U.S. government's official web portal to all federal, state and local government web resources and services.